Главная страница
METAR-TAF:

METAR-TAF

Аэропорты :

Каир, Египет

широта: 30-08N, долгота: 031-24E, высота над уровнем моря: 64 м

Текущие метеонаблюдения

Эта сводка был подготовлена 14 минут назад, в 22:30 UTC
Ветер 7 Узел от южный
Температура 15°C
Влажность 59%
Давление 1020 hPa
Видимость: 6000 м

METAR: HECA 092230Z 18007KT 6000 NSC 15/07 Q1020 NOSIG

Время: 00:44 (22:44 UTC)

Прогноз

Эта сводка был подготовлена 5 часа и 44 минут назад, в 17:00 UTC
Прогноз действительный с 09-го 18 UTC до 10-го 24 UTC
Ветер 10 Узел от южный-юго-западный
Видимость 10 км и более
Нет облачности ниже 1500 м, и нет кучево-дождевой облачности
Вероятность 30% :
временами
С 10-го 03 UTC до 10-го 06 UTC
Ветер 3 Узел переменных направлений
Видимость: 3000 м
мгла

TAF: HECA 091700Z 0918/1024 20010KT CAVOK PROB30 TEMPO 1003/1006 VRB03KT 3000 HZ NSC

Метеонаблюдения и прогнозы для более 4000 аэропортов (сводки METAR и TAF).

Имеющиеся станции представлены на карте желтыми и красными точками.

Чтобы увидеть название станции, наведите на нее мышь.

Затем щелкните, чтобы увидеть метеонаблюдения и метеопрогнозы.

Управление картой: чтобы увеличить масштаб, щелкните зеленые кнопки с черным крестиком; чтобы уменьшить масштаб, щелкните зеленую кнопку с тире; для просмотра соседних карт щелкайте зеленые стрелки.


METAR-TAF: